createdAt,value
2022-10-17T00:00:16.995Z,27.77
2022-10-17T00:05:19.098Z,26.02
2022-10-17T00:10:22.335Z,26.58
2022-10-17T00:15:26.877Z,28.35
2022-10-17T00:20:30.524Z,25.23
2022-10-17T00:25:32.665Z,26.90
2022-10-17T00:30:34.697Z,26.38
2022-10-17T00:35:37.349Z,26.70
2022-10-17T00:40:39.586Z,29.42
2022-10-17T00:45:42.315Z,30.23
2022-10-17T00:50:48.960Z,26.08
2022-10-17T01:05:57.457Z,22.98
2022-10-17T01:11:11.996Z,26.85
2022-10-17T01:16:34.698Z,27.15
2022-10-17T01:21:50.740Z,26.40
2022-10-17T01:27:33.901Z,24.77
2022-10-17T01:32:45.358Z,25.17
2022-10-17T01:38:11.753Z,26.05
2022-10-17T01:43:17.016Z,37.40
2022-10-17T01:48:23.856Z,41.33
2022-10-17T01:53:32.001Z,33.35
2022-10-17T01:58:38.397Z,30.95
2022-10-17T02:03:43.655Z,51.25
2022-10-17T02:08:48.611Z,43.47
2022-10-17T02:14:03.190Z,36.00
2022-10-17T02:19:33.641Z,29.13
2022-10-17T02:24:48.438Z,26.67
2022-10-17T02:30:01.180Z,26.85
2022-10-17T02:35:07.478Z,25.55
2022-10-17T02:40:11.280Z,28.00
2022-10-17T02:45:15.884Z,27.42
2022-10-17T02:50:20.061Z,28.27
2022-10-17T02:55:28.504Z,27.92
2022-10-17T03:00:33.383Z,31.15
2022-10-17T03:05:36.021Z,30.92
2022-10-17T03:10:37.987Z,29.23
2022-10-17T03:15:41.095Z,26.90
2022-10-17T03:20:43.793Z,28.30
2022-10-17T03:25:45.894Z,38.30
2022-10-17T03:30:49.628Z,29.42
2022-10-17T03:35:51.673Z,33.03
2022-10-17T03:40:57.110Z,30.02
2022-10-17T03:46:00.749Z,33.47
2022-10-17T03:51:09.215Z,34.50
2022-10-17T03:56:22.062Z,32.03
2022-10-17T04:01:35.342Z,31.83
2022-10-17T04:06:38.300Z,32.13
2022-10-17T04:11:40.647Z,31.02
2022-10-17T04:16:42.977Z,30.30
2022-10-17T04:21:52.602Z,31.30
2022-10-17T04:26:55.808Z,31.83
2022-10-17T04:32:00.668Z,32.70
2022-10-17T04:37:10.933Z,33.55
2022-10-17T04:42:13.316Z,32.15
2022-10-17T04:47:16.263Z,31.17
2022-10-17T04:52:19.033Z,36.47
2022-10-17T04:57:24.918Z,32.53
2022-10-17T05:02:34.753Z,33.95
2022-10-17T05:07:41.587Z,38.17
2022-10-17T05:12:49.601Z,36.00
2022-10-17T05:18:04.163Z,34.88
2022-10-17T05:23:07.981Z,30.98
2022-10-17T05:28:14.808Z,32.42
2022-10-17T05:33:19.371Z,32.72
2022-10-17T05:43:25.147Z,33.27
2022-10-17T05:48:28.325Z,31.00
2022-10-17T05:53:32.965Z,31.80
2022-10-17T05:58:50.308Z,34.92
2022-10-17T06:04:17.381Z,29.92
2022-10-17T06:09:19.501Z,29.88
2022-10-17T06:14:24.565Z,30.50
2022-10-17T06:19:30.790Z,30.45
2022-10-17T06:24:32.968Z,30.73
2022-10-17T06:29:39.048Z,29.65
2022-10-17T06:34:41.488Z,29.07
2022-10-17T06:39:44.385Z,31.63
2022-10-17T06:44:53.449Z,29.13
2022-10-17T06:50:12.006Z,27.23
2022-10-17T06:55:22.651Z,26.88
2022-10-17T07:00:48.481Z,28.58
2022-10-17T07:11:09.316Z,27.88
2022-10-17T07:16:12.467Z,27.42
2022-10-17T07:21:15.904Z,26.83
2022-10-17T07:26:19.694Z,26.87
2022-10-17T07:31:24.086Z,25.27
2022-10-17T07:36:26.922Z,24.33
2022-10-17T07:41:30.493Z,23.48
2022-10-17T07:46:39.030Z,23.20
2022-10-17T07:51:41.974Z,22.52
2022-10-17T07:56:44.116Z,23.92
2022-10-17T08:01:46.404Z,22.05
2022-10-17T08:06:50.827Z,21.05
2022-10-17T08:11:55.368Z,21.55
2022-10-17T08:16:57.537Z,20.98
2022-10-17T08:21:59.600Z,21.33
2022-10-17T08:27:01.714Z,20.10
2022-10-17T08:32:06.509Z,20.60
2022-10-17T08:42:13.107Z,18.75
2022-10-17T08:47:20.927Z,17.92
2022-10-17T08:52:45.109Z,18.58
2022-10-17T08:57:48.174Z,24.52
2022-10-17T09:03:14.724Z,19.83
2022-10-17T09:08:53.132Z,21.30
2022-10-17T09:14:13.337Z,19.42
2022-10-17T09:19:30.429Z,19.27
2022-10-17T09:24:51.137Z,19.83
2022-10-17T09:30:21.508Z,18.75
2022-10-17T09:35:38.377Z,20.52
2022-10-17T09:40:40.821Z,17.83
2022-10-17T09:46:00.337Z,17.58
2022-10-17T09:51:21.719Z,19.58
2022-10-17T09:56:24.314Z,20.13
2022-10-17T10:01:30.759Z,20.50
2022-10-17T10:06:32.822Z,19.35
2022-10-17T10:11:49.940Z,17.25
2022-10-17T10:16:53.759Z,18.77
2022-10-17T10:21:58.437Z,17.33
2022-10-17T10:27:04.247Z,17.50
2022-10-17T10:32:17.349Z,17.35
2022-10-17T10:37:27.446Z,17.58
2022-10-17T10:42:33.030Z,16.52
2022-10-17T10:47:35.644Z,16.02
2022-10-17T10:52:47.837Z,16.73
2022-10-17T10:57:53.120Z,16.35
2022-10-17T11:03:13.689Z,16.17
2022-10-17T11:08:43.275Z,16.27
2022-10-17T11:13:54.932Z,15.50
2022-10-17T11:19:16.687Z,14.93
2022-10-17T11:24:25.434Z,14.32
2022-10-17T11:29:36.303Z,14.20
2022-10-17T11:34:46.608Z,13.75
2022-10-17T11:39:56.412Z,14.02
2022-10-17T11:45:20.652Z,13.35
2022-10-17T11:56:03.113Z,14.93
2022-10-17T12:01:31.917Z,14.10
2022-10-17T12:06:48.753Z,14.68
2022-10-17T12:11:54.310Z,14.43
2022-10-17T12:16:56.290Z,13.98
2022-10-17T12:22:19.044Z,14.15
2022-10-17T12:27:33.362Z,15.43
2022-10-17T12:32:53.340Z,16.40
2022-10-17T12:38:16.680Z,14.68
2022-10-17T12:43:18.624Z,15.18
2022-10-17T12:48:39.062Z,14.77
2022-10-17T12:53:47.472Z,14.27
2022-10-17T12:58:51.750Z,14.75
2022-10-17T13:03:56.035Z,14.45
2022-10-17T13:09:05.573Z,14.40
2022-10-17T13:14:16.429Z,15.27
2022-10-17T13:19:23.573Z,14.77
2022-10-17T13:24:30.493Z,13.98
2022-10-17T13:29:32.991Z,14.82
2022-10-17T13:34:35.801Z,14.60
2022-10-17T13:39:55.223Z,13.88
2022-10-17T13:44:59.112Z,14.88
2022-10-17T13:50:01.202Z,15.85
2022-10-17T13:55:17.552Z,14.93
2022-10-17T14:00:23.011Z,15.05
2022-10-17T14:05:25.605Z,15.07
2022-10-17T14:10:37.460Z,14.85
2022-10-17T14:15:45.864Z,22.17
2022-10-17T14:26:21.136Z,24.25
2022-10-17T14:31:32.217Z,23.90
2022-10-17T14:36:38.393Z,29.65
2022-10-17T14:41:47.713Z,20.73
2022-10-17T14:46:57.962Z,20.65
2022-10-17T14:52:17.993Z,19.35
2022-10-17T14:57:35.113Z,22.88
2022-10-17T15:02:37.330Z,23.45
2022-10-17T15:07:39.552Z,26.00
2022-10-17T15:12:51.064Z,27.05
2022-10-17T15:18:00.970Z,30.35
2022-10-17T15:23:03.989Z,32.95
2022-10-17T15:28:07.649Z,37.00
2022-10-17T15:33:09.713Z,39.55
2022-10-17T15:38:17.927Z,38.70
2022-10-17T15:43:20.242Z,39.63
2022-10-17T15:48:29.325Z,39.87
2022-10-17T15:53:31.308Z,43.15
2022-10-17T15:58:40.422Z,47.88
2022-10-17T16:03:42.614Z,49.15
2022-10-17T16:08:49.237Z,52.22
2022-10-17T16:13:53.531Z,47.17
2022-10-17T16:18:55.745Z,45.55
2022-10-17T16:23:57.760Z,51.28
2022-10-17T16:29:02.848Z,45.35
2022-10-17T16:34:06.556Z,45.53
2022-10-17T16:44:14.772Z,39.47
2022-10-17T16:49:18.204Z,35.65
2022-10-17T16:59:22.151Z,33.67
2022-10-17T17:04:24.344Z,31.60
2022-10-17T17:09:26.755Z,34.35
2022-10-17T17:14:28.761Z,30.75
2022-10-17T17:19:30.809Z,30.85
2022-10-17T17:24:39.141Z,35.15
2022-10-17T17:29:58.711Z,43.60
2022-10-17T17:35:06.062Z,38.90
2022-10-17T17:40:08.452Z,35.50
2022-10-17T17:45:10.866Z,35.50
2022-10-17T17:50:13.479Z,29.88
2022-10-17T17:55:15.687Z,31.63
2022-10-17T18:00:17.720Z,33.38
2022-10-17T18:05:19.701Z,29.63
2022-10-17T18:10:22.052Z,27.40
2022-10-17T18:15:24.248Z,27.58
2022-10-17T18:20:27.746Z,26.90
2022-10-17T18:30:34.477Z,25.70
2022-10-17T18:35:36.569Z,27.17
2022-10-17T18:40:38.575Z,26.10
2022-10-17T18:45:40.563Z,26.10
2022-10-17T18:50:42.801Z,26.38
2022-10-17T19:00:52.071Z,24.48
2022-10-17T19:05:56.667Z,24.33
2022-10-17T19:11:37.613Z,25.35
2022-10-17T19:16:48.804Z,26.08
2022-10-17T19:21:57.347Z,26.20
2022-10-17T19:27:02.679Z,25.73
2022-10-17T19:32:12.106Z,23.95
2022-10-17T19:37:18.111Z,26.88
2022-10-17T19:42:20.296Z,24.50
2022-10-17T19:47:22.257Z,25.33
2022-10-17T19:52:24.454Z,25.83
2022-10-17T19:57:26.501Z,26.25
2022-10-17T20:02:28.837Z,26.17
2022-10-17T20:07:31.056Z,26.10
2022-10-17T20:12:33.680Z,24.33
2022-10-17T20:17:35.739Z,24.65
2022-10-17T20:22:37.765Z,30.38
2022-10-17T20:27:40.022Z,26.33
2022-10-17T20:32:42.173Z,26.13
2022-10-17T20:37:44.154Z,25.35
2022-10-17T20:42:46.238Z,24.50
2022-10-17T20:47:52.451Z,22.95
2022-10-17T20:53:06.321Z,23.85
2022-10-17T20:58:16.673Z,25.30
2022-10-17T21:03:18.726Z,23.95
2022-10-17T21:08:20.742Z,25.75
2022-10-17T21:13:22.989Z,26.80
2022-10-17T21:18:25.131Z,25.00
2022-10-17T21:23:28.129Z,24.98
2022-10-17T21:28:31.165Z,25.90
2022-10-17T21:33:33.361Z,30.00
2022-10-17T21:38:37.649Z,25.73
2022-10-17T21:43:46.613Z,24.88
2022-10-17T21:48:49.508Z,22.80
2022-10-17T21:53:53.388Z,24.33
2022-10-17T21:58:55.860Z,26.00
2022-10-17T22:03:59.745Z,26.25
2022-10-17T22:09:02.483Z,28.33
2022-10-17T22:14:07.688Z,28.33
2022-10-17T22:19:11.336Z,27.10
2022-10-17T22:24:14.959Z,25.83
2022-10-17T22:34:19.557Z,26.48
2022-10-17T22:39:21.433Z,27.17
2022-10-17T22:44:25.431Z,26.52
2022-10-17T22:49:27.315Z,29.00
2022-10-17T22:54:29.237Z,29.20
2022-10-17T22:59:31.196Z,27.60
2022-10-17T23:04:33.744Z,27.95
2022-10-17T23:09:35.634Z,28.50
2022-10-17T23:14:37.973Z,25.15
2022-10-17T23:19:40.084Z,27.77
2022-10-17T23:24:42.022Z,28.88
2022-10-17T23:29:43.897Z,29.02
2022-10-17T23:34:45.861Z,28.75
2022-10-17T23:39:47.917Z,28.02
2022-10-17T23:44:49.893Z,28.02
2022-10-17T23:49:52.009Z,30.45
2022-10-17T23:54:54.205Z,29.75
2022-10-17T23:59:56.117Z,30.17
